This is the latest recevied weather packets stored in our database for station/object 9M2EVR-2. If no packets are shown the sender has not sent any weather packets the latest 10 day(s).
| Time | Temp. | Humidity | Pressure | Rain* | Wind** | Luminosity | Snow |
|---|---|---|---|---|---|---|---|
| 1777776125 | 39.44° C | 48% | 1008.3 hPa | - | - | - | - |
| 1777775224 | 38.89° C | 49% | 1008.2 hPa | - | - | - | - |
| 1777774323 | 38.89° C | 48% | 1008.4 hPa | - | - | - | - |
| 1777773422 | 38.33° C | 50% | 1008.3 hPa | - | - | - | - |
| 1777770720 | 36.11° C | 54% | 1008.2 hPa | - | - | - | - |
| 1777769819 | 35.56° C | 57% | 1008.1 hPa | - | - | - | - |
| 1777739718 | 38.33° C | 46% | 1007.6 hPa | - | - | - | - |
| 1777738817 | 38.33° C | 46% | 1007.5 hPa | - | - | - | - |
| 1777737916 | 38.33° C | 46% | 1007.6 hPa | - | - | - | - |
| 1777737016 | 38.33° C | 46% | 1007.7 hPa | - | - | - | - |
| 1777736115 | 38.89° C | 46% | 1007.7 hPa | - | - | - | - |
| 1777735213 | 38.89° C | 46% | 1007.6 hPa | - | - | - | - |
| 1777734313 | 38.89° C | 46% | 1007.5 hPa | - | - | - | - |
| 1777729848 | 39.44° C | 44% | 1006.7 hPa | - | - | - | - |
| 1777728947 | 39.44° C | 44% | 1006.7 hPa | - | - | - | - |
| 1777728046 | 40° C | 43% | 1006.4 hPa | - | - | - | - |
| 1777727145 | 40° C | 43% | 1006.2 hPa | - | - | - | - |
| 1777725345 | 40.56° C | 41% | 1005.7 hPa | - | - | - | - |
| 1777724443 | 41.11° C | 41% | 1005.4 hPa | - | - | - | - |
| 1777723542 | 41.11° C | 41% | 1004.9 hPa | - | - | - | - |
| 1777721740 | 41.67° C | 40% | 1004.5 hPa | - | - | - | - |
| 1777720839 | 41.67° C | 40% | 1004.4 hPa | - | - | - | - |
| 1777719939 | 41.67° C | 40% | 1004.2 hPa | - | - | - | - |
| 1777719038 | 42.22° C | 39% | 1003.8 hPa | - | - | - | - |
| 1777718137 | 42.22° C | 40% | 1003.6 hPa | - | - | - | - |
* Rain since midnight (hover to see other rain measurements)
** Current wind speed in m/s (hover to see current wind gust speed)